Time;durP1;ratioP1;P1;durP2;ratioP2;P2;SDS_P1;SDS_P2;PMS_P1;PMS_P2;Temp;Humidity;BMP_temperature;BMP_pressure;BME280_temperature;BME280_humidity;BME280_pressure;Samples;Min_cycle;Max_cycle;Signal;HPM_P1;HPM_P2
2023/12/12 00:02:03;;;;;;;14.47;2.97;;;;;;;;;;5041417;28;20437;-69
2023/12/12 00:04:30;;;;;;;13.63;2.90;;;;;;;;;;5042543;28;20437;-69
2023/12/12 00:06:57;;;;;;;11.77;2.80;;;;;;;;;;5045772;28;20931;-69
2023/12/12 00:09:24;;;;;;;12.07;2.67;;;;;;;;;;5043721;28;20425;-69
2023/12/12 00:11:52;;;;;;;13.98;2.88;;;;;;;;;;5042543;28;20519;-70
2023/12/12 00:14:19;;;;;;;11.68;2.88;;;;;;;;;;5043937;28;20421;-69
2023/12/12 00:16:46;;;;;;;14.88;3.25;;;;;;;;;;5041217;28;20534;-69
2023/12/12 00:19:14;;;;;;;15.95;2.67;;;;;;;;;;5037938;28;20437;-69
2023/12/12 00:21:41;;;;;;;11.70;2.72;;;;;;;;;;5037516;28;20433;-69
2023/12/12 00:24:08;;;;;;;12.85;2.60;;;;;;;;;;5045846;28;20429;-69
2023/12/12 00:26:35;;;;;;;15.43;3.05;;;;;;;;;;5048013;28;20440;-69
2023/12/12 00:29:02;;;;;;;13.57;2.90;;;;;;;;;;5046654;28;20847;-69
2023/12/12 00:31:30;;;;;;;13.47;2.70;;;;;;;;;;5039671;28;20849;-69
2023/12/12 00:33:57;;;;;;;13.88;2.85;;;;;;;;;;5041586;28;20902;-69
2023/12/12 00:36:24;;;;;;;15.52;2.80;;;;;;;;;;5050526;28;20425;-69
2023/12/12 00:38:52;;;;;;;18.80;3.10;;;;;;;;;;5042968;28;20518;-69
2023/12/12 00:41:19;;;;;;;16.00;3.30;;;;;;;;;;5027394;28;20438;-69
2023/12/12 00:43:46;;;;;;;11.45;2.80;;;;;;;;;;5047856;28;20467;-69
2023/12/12 00:46:13;;;;;;;12.57;2.70;;;;;;;;;;5045066;28;20781;-69
2023/12/12 00:48:40;;;;;;;17.58;3.50;;;;;;;;;;5052557;28;20427;-69
2023/12/12 00:51:09;;;;;;;15.80;2.87;;;;;;;;;;5046370;28;20433;-69
2023/12/12 00:53:36;;;;;;;15.60;3.05;;;;;;;;;;5051269;28;20445;-69
2023/12/12 00:56:04;;;;;;;16.60;2.85;;;;;;;;;;5035805;28;20779;-69
2023/12/12 00:58:31;;;;;;;14.25;3.78;;;;;;;;;;5052672;28;20420;-69
2023/12/12 01:00:58;;;;;;;18.55;3.15;;;;;;;;;;5059050;28;20447;-69
2023/12/12 01:03:25;;;;;;;11.80;2.92;;;;;;;;;;5049377;28;21279;-69
2023/12/12 01:05:52;;;;;;;18.25;3.25;;;;;;;;;;5037813;28;20533;-69
2023/12/12 01:08:19;;;;;;;18.17;3.25;;;;;;;;;;5044568;28;20799;-69
2023/12/12 01:10:47;;;;;;;15.67;3.30;;;;;;;;;;5036763;28;20430;-69
2023/12/12 01:13:14;;;;;;;18.27;3.28;;;;;;;;;;5045541;28;20453;-69
2023/12/12 01:15:41;;;;;;;14.93;2.60;;;;;;;;;;5046391;28;20422;-69
2023/12/12 01:18:08;;;;;;;16.92;3.42;;;;;;;;;;5037379;28;20433;-68
2023/12/12 01:20:36;;;;;;;16.90;2.87;;;;;;;;;;5040619;28;20510;-69
2023/12/12 01:23:03;;;;;;;15.38;3.15;;;;;;;;;;5043712;28;20846;-69
2023/12/12 01:25:31;;;;;;;15.43;2.85;;;;;;;;;;5047714;28;20940;-69
2023/12/12 01:27:58;;;;;;;12.88;3.00;;;;;;;;;;5042382;28;20439;-69
2023/12/12 01:30:25;;;;;;;12.05;2.85;;;;;;;;;;5042234;28;20441;-69
2023/12/12 01:32:52;;;;;;;13.27;3.22;;;;;;;;;;5048328;28;20512;-69
2023/12/12 01:35:20;;;;;;;18.00;3.35;;;;;;;;;;5045590;28;20880;-69
2023/12/12 01:37:47;;;;;;;11.90;2.87;;;;;;;;;;5024703;28;20438;-69
2023/12/12 01:40:14;;;;;;;15.20;2.47;;;;;;;;;;5031653;28;20540;-69
2023/12/12 01:42:41;;;;;;;16.70;3.72;;;;;;;;;;5045390;28;20432;-69
2023/12/12 01:45:09;;;;;;;15.77;3.03;;;;;;;;;;5046670;28;20508;-69
2023/12/12 01:47:36;;;;;;;15.27;3.60;;;;;;;;;;5040408;28;20435;-69
2023/12/12 01:50:03;;;;;;;14.75;2.70;;;;;;;;;;5046343;28;20429;-69
2023/12/12 01:52:31;;;;;;;14.18;2.78;;;;;;;;;;5052817;28;20421;-69
2023/12/12 01:54:58;;;;;;;17.30;2.92;;;;;;;;;;5045404;28;20461;-69
2023/12/12 01:57:25;;;;;;;14.45;2.67;;;;;;;;;;5046027;28;20792;-69
2023/12/12 01:59:53;;;;;;;9.32;2.10;;;;;;;;;;5046809;28;20425;-70
2023/12/12 02:02:20;;;;;;;15.60;3.00;;;;;;;;;;5048291;28;20442;-69
2023/12/12 02:04:49;;;;;;;12.38;2.72;;;;;;;;;;5049395;28;20497;-69
2023/12/12 02:07:16;;;;;;;14.50;2.67;;;;;;;;;;5045027;28;20432;-69
2023/12/12 02:09:44;;;;;;;13.82;2.58;;;;;;;;;;5044999;28;20424;-69
2023/12/12 02:12:11;;;;;;;12.90;2.63;;;;;;;;;;5039091;28;20512;-69
2023/12/12 02:14:39;;;;;;;13.30;3.13;;;;;;;;;;5033711;28;20454;-69
2023/12/12 02:17:06;;;;;;;15.57;2.95;;;;;;;;;;5041878;28;20580;-69
2023/12/12 02:19:34;;;;;;;13.25;2.83;;;;;;;;;;5038586;28;20495;-69
2023/12/12 02:22:01;;;;;;;15.55;2.97;;;;;;;;;;5045299;28;20525;-68
2023/12/12 02:24:28;;;;;;;11.77;3.05;;;;;;;;;;5023674;28;20573;-69
2023/12/12 02:26:56;;;;;;;14.70;2.70;;;;;;;;;;5051737;28;21038;-69
2023/12/12 02:29:23;;;;;;;15.27;2.65;;;;;;;;;;5045615;28;20520;-69
2023/12/12 02:31:50;;;;;;;14.02;3.13;;;;;;;;;;5050464;28;20509;-68
2023/12/12 02:34:17;;;;;;;15.80;3.03;;;;;;;;;;5026547;28;20461;-69
2023/12/12 02:36:44;;;;;;;20.85;2.90;;;;;;;;;;5043045;28;20559;-69
2023/12/12 02:39:11;;;;;;;17.55;2.92;;;;;;;;;;5048364;28;20927;-69
2023/12/12 02:41:39;;;;;;;16.00;3.22;;;;;;;;;;5028158;28;20475;-69
2023/12/12 02:44:06;;;;;;;13.20;3.13;;;;;;;;;;5044746;28;20524;-68
2023/12/12 02:46:33;;;;;;;17.25;2.80;;;;;;;;;;5026706;28;20952;-68
2023/12/12 02:49:00;;;;;;;13.30;2.92;;;;;;;;;;5046492;28;20431;-69
2023/12/12 02:51:27;;;;;;;10.75;3.05;;;;;;;;;;5045961;28;20483;-69
2023/12/12 02:53:54;;;;;;;15.95;3.03;;;;;;;;;;5044682;28;20526;-69
2023/12/12 02:56:22;;;;;;;15.20;2.90;;;;;;;;;;5042189;28;20934;-69
2023/12/12 02:58:49;;;;;;;14.45;3.13;;;;;;;;;;5044515;28;20437;-69
2023/12/12 03:01:16;;;;;;;15.32;3.20;;;;;;;;;;5044149;28;20453;-69
2023/12/12 03:03:43;;;;;;;14.95;3.30;;;;;;;;;;5045627;28;20504;-68
2023/12/12 03:06:10;;;;;;;14.45;2.70;;;;;;;;;;5024969;28;21212;-68
2023/12/12 03:08:38;;;;;;;13.63;2.90;;;;;;;;;;5035661;28;20517;-69
2023/12/12 03:11:05;;;;;;;16.45;3.20;;;;;;;;;;5044181;28;20425;-69
2023/12/12 03:13:33;;;;;;;20.27;3.53;;;;;;;;;;5047071;28;20845;-69
2023/12/12 03:16:00;;;;;;;15.38;3.40;;;;;;;;;;5043167;28;20461;-69
2023/12/12 03:18:27;;;;;;;12.27;2.85;;;;;;;;;;5041588;28;20429;-69
2023/12/12 03:20:55;;;;;;;12.77;3.03;;;;;;;;;;5041885;28;20429;-69
2023/12/12 03:23:22;;;;;;;18.42;3.13;;;;;;;;;;5048071;28;20438;-69
2023/12/12 03:25:49;;;;;;;12.43;3.13;;;;;;;;;;5048356;28;20445;-69
2023/12/12 03:28:17;;;;;;;9.13;2.83;;;;;;;;;;5043045;28;20483;-69
2023/12/12 03:30:44;;;;;;;10.57;2.78;;;;;;;;;;5045335;28;20614;-69
2023/12/12 03:33:12;;;;;;;14.85;3.03;;;;;;;;;;5047554;28;20935;-69
2023/12/12 03:35:39;;;;;;;13.23;3.15;;;;;;;;;;5039704;28;20897;-69
2023/12/12 03:38:06;;;;;;;14.27;3.58;;;;;;;;;;5041558;28;20529;-68
2023/12/12 03:40:33;;;;;;;17.67;3.10;;;;;;;;;;5028851;28;20508;-69
2023/12/12 03:43:00;;;;;;;18.67;3.23;;;;;;;;;;5045273;28;20429;-69
2023/12/12 03:45:28;;;;;;;18.27;3.10;;;;;;;;;;5047910;28;20440;-69
2023/12/12 03:47:55;;;;;;;12.48;3.17;;;;;;;;;;5039057;28;20429;-69
2023/12/12 03:50:22;;;;;;;15.57;3.42;;;;;;;;;;5024092;28;20425;-69
2023/12/12 03:52:49;;;;;;;14.38;3.15;;;;;;;;;;5044863;28;20425;-69
2023/12/12 03:55:16;;;;;;;15.88;3.35;;;;;;;;;;5047076;28;20425;-68
2023/12/12 03:57:44;;;;;;;13.55;3.00;;;;;;;;;;5043668;28;20787;-69
2023/12/12 04:00:11;;;;;;;15.18;3.03;;;;;;;;;;5044378;28;20433;-69
2023/12/12 04:02:38;;;;;;;14.23;3.43;;;;;;;;;;5044624;28;20435;-69
2023/12/12 04:05:09;;;;;;;15.13;2.90;;;;;;;;;;5049665;28;20437;-69
2023/12/12 04:07:40;;;;;;;15.90;3.35;;;;;;;;;;5041893;28;20433;-68
2023/12/12 04:10:08;;;;;;;11.82;2.83;;;;;;;;;;5049997;28;20512;-69
2023/12/12 04:12:35;;;;;;;12.98;3.28;;;;;;;;;;5057994;28;20454;-69
2023/12/12 04:15:03;;;;;;;13.75;3.03;;;;;;;;;;5042454;28;21051;-69
2023/12/12 04:17:31;;;;;;;19.27;3.83;;;;;;;;;;5048649;28;20499;-68
2023/12/12 04:19:58;;;;;;;12.70;2.90;;;;;;;;;;5050804;28;20432;-69
2023/12/12 04:22:26;;;;;;;17.13;4.03;;;;;;;;;;5057278;28;20427;-69
2023/12/12 04:24:53;;;;;;;14.88;3.75;;;;;;;;;;5050369;28;20573;-69
2023/12/12 04:27:20;;;;;;;18.40;3.53;;;;;;;;;;5049789;28;20452;-69
2023/12/12 04:29:47;;;;;;;16.43;3.40;;;;;;;;;;5054089;28;21239;-69
2023/12/12 04:32:15;;;;;;;14.82;3.80;;;;;;;;;;5053045;28;20421;-69
2023/12/12 04:34:42;;;;;;;18.00;3.47;;;;;;;;;;5050113;28;20460;-69
2023/12/12 04:37:10;;;;;;;13.88;3.33;;;;;;;;;;5054637;28;20593;-68
2023/12/12 04:39:37;;;;;;;19.13;3.40;;;;;;;;;;5049949;28;20487;-69
2023/12/12 04:42:04;;;;;;;11.77;3.30;;;;;;;;;;5053064;28;20997;-69
2023/12/12 04:44:32;;;;;;;11.63;3.60;;;;;;;;;;5053009;28;20444;-69
2023/12/12 04:46:59;;;;;;;16.92;3.92;;;;;;;;;;5051765;28;20994;-69
2023/12/12 04:49:27;;;;;;;16.08;3.33;;;;;;;;;;5051962;28;20504;-69
2023/12/12 04:51:54;;;;;;;16.05;3.55;;;;;;;;;;5049229;28;20957;-69
2023/12/12 04:54:21;;;;;;;16.65;3.67;;;;;;;;;;5046473;28;20436;-68
2023/12/12 04:56:48;;;;;;;14.48;3.65;;;;;;;;;;5027314;28;20425;-69
2023/12/12 04:59:15;;;;;;;18.67;3.55;;;;;;;;;;5050114;28;21119;-69
2023/12/12 05:01:43;;;;;;;17.63;3.85;;;;;;;;;;5048684;28;20489;-69
2023/12/12 05:04:10;;;;;;;15.57;3.40;;;;;;;;;;5051273;28;20429;-68
2023/12/12 05:06:38;;;;;;;12.90;3.60;;;;;;;;;;5047809;28;20517;-68
2023/12/12 05:09:05;;;;;;;16.10;4.03;;;;;;;;;;5041658;28;20431;-69
2023/12/12 05:11:32;;;;;;;18.65;4.03;;;;;;;;;;5046520;28;20425;-69
2023/12/12 05:14:00;;;;;;;20.47;3.93;;;;;;;;;;5047532;28;20516;-69
2023/12/12 05:16:27;;;;;;;19.50;3.75;;;;;;;;;;5049656;28;20429;-69
2023/12/12 05:18:59;;;;;;;16.27;3.40;;;;;;;;;;5032835;28;20425;-69
2023/12/12 05:21:27;;;;;;;13.68;3.42;;;;;;;;;;5047612;28;20939;-69
2023/12/12 05:23:54;;;;;;;12.98;3.25;;;;;;;;;;5043147;28;20430;-69
2023/12/12 05:26:21;;;;;;;12.82;3.22;;;;;;;;;;5044501;28;20896;-69
2023/12/12 05:28:49;;;;;;;15.98;3.58;;;;;;;;;;5043445;28;20429;-68
2023/12/12 05:31:16;;;;;;;17.20;3.42;;;;;;;;;;5044977;28;20432;-68
2023/12/12 05:33:43;;;;;;;16.08;3.53;;;;;;;;;;5047124;28;20452;-68
2023/12/12 05:36:11;;;;;;;14.68;4.07;;;;;;;;;;5048050;28;20504;-68
2023/12/12 05:38:38;;;;;;;12.25;3.33;;;;;;;;;;5044754;28;20450;-69
2023/12/12 05:41:06;;;;;;;20.10;4.57;;;;;;;;;;5042032;28;20431;-68
2023/12/12 05:43:34;;;;;;;16.15;3.63;;;;;;;;;;5025902;28;20473;-69
2023/12/12 05:46:02;;;;;;;16.15;3.75;;;;;;;;;;5043024;28;20441;-68
2023/12/12 05:48:30;;;;;;;17.67;4.20;;;;;;;;;;5048883;28;20432;-69
2023/12/12 05:50:57;;;;;;;16.45;3.90;;;;;;;;;;5042955;28;20423;-68
2023/12/12 05:53:26;;;;;;;15.18;3.85;;;;;;;;;;5039017;28;20433;-68
2023/12/12 05:55:55;;;;;;;17.10;4.00;;;;;;;;;;5052513;28;20433;-69
2023/12/12 05:58:23;;;;;;;16.38;3.50;;;;;;;;;;5044272;28;20433;-69
2023/12/12 06:00:51;;;;;;;18.92;3.83;;;;;;;;;;5041653;28;21079;-69
2023/12/12 06:03:19;;;;;;;18.08;3.60;;;;;;;;;;5037517;28;20437;-68
2023/12/12 06:05:46;;;;;;;20.15;3.83;;;;;;;;;;5047036;28;20539;-68
2023/12/12 06:08:13;;;;;;;18.27;4.00;;;;;;;;;;5040026;28;20458;-68
2023/12/12 06:10:40;;;;;;;17.17;3.50;;;;;;;;;;5041692;28;20433;-68
2023/12/12 06:13:08;;;;;;;16.83;3.78;;;;;;;;;;5041376;28;20512;-68
2023/12/12 06:15:35;;;;;;;22.47;3.93;;;;;;;;;;5036911;28;21853;-68
2023/12/12 06:18:03;;;;;;;12.38;3.53;;;;;;;;;;5042817;28;20435;-68
2023/12/12 06:20:32;;;;;;;12.27;3.60;;;;;;;;;;5056658;28;20526;-68
2023/12/12 06:22:59;;;;;;;17.08;4.13;;;;;;;;;;5045059;28;20431;-68
2023/12/12 06:25:26;;;;;;;12.25;3.97;;;;;;;;;;5041069;28;20976;-68
2023/12/12 06:27:54;;;;;;;21.20;4.75;;;;;;;;;;5045612;28;20429;-68
2023/12/12 06:30:21;;;;;;;18.88;4.10;;;;;;;;;;5029994;28;20430;-68
2023/12/12 06:32:49;;;;;;;16.50;3.80;;;;;;;;;;5031287;28;20443;-69
2023/12/12 06:35:17;;;;;;;16.47;4.07;;;;;;;;;;5051122;28;20460;-68
2023/12/12 06:37:45;;;;;;;20.77;4.57;;;;;;;;;;5045243;28;20967;-68
2023/12/12 06:40:12;;;;;;;18.90;4.60;;;;;;;;;;5031410;28;20433;-68
2023/12/12 06:42:41;;;;;;;16.40;4.20;;;;;;;;;;5048967;28;20437;-68
2023/12/12 06:45:11;;;;;;;14.45;4.20;;;;;;;;;;5051556;28;20525;-68
2023/12/12 06:47:38;;;;;;;16.17;3.90;;;;;;;;;;5038414;28;21006;-68
2023/12/12 06:50:06;;;;;;;20.67;5.10;;;;;;;;;;5041129;28;20436;-68
2023/12/12 06:52:34;;;;;;;14.90;4.10;;;;;;;;;;5045743;28;20436;-69
2023/12/12 06:55:01;;;;;;;18.55;4.22;;;;;;;;;;5041244;28;20435;-68
2023/12/12 06:57:28;;;;;;;18.73;4.78;;;;;;;;;;5043659;28;20464;-68
2023/12/12 06:59:56;;;;;;;18.60;4.82;;;;;;;;;;5047342;28;20436;-68
2023/12/12 07:02:23;;;;;;;21.50;4.87;;;;;;;;;;5048030;28;20453;-68
2023/12/12 07:04:51;;;;;;;17.10;4.53;;;;;;;;;;5044194;28;20835;-68
2023/12/12 07:07:18;;;;;;;22.70;5.50;;;;;;;;;;5043095;28;20434;-68
2023/12/12 07:09:46;;;;;;;20.93;5.40;;;;;;;;;;5043993;28;20513;-68
2023/12/12 07:12:26;;;;;;;20.02;4.70;;;;;;;;;;5040803;28;20516;-68
2023/12/12 07:14:54;;;;;;;19.10;4.90;;;;;;;;;;5043131;28;20582;-68
2023/12/12 07:17:22;;;;;;;22.00;5.13;;;;;;;;;;5039729;28;20515;-68
2023/12/12 07:19:50;;;;;;;26.42;5.80;;;;;;;;;;5023344;28;20485;-68
2023/12/12 07:22:19;;;;;;;30.02;6.03;;;;;;;;;;5039908;28;20440;-68
2023/12/12 07:24:46;;;;;;;26.33;5.67;;;;;;;;;;5042914;28;20438;-68
2023/12/12 07:27:13;;;;;;;21.95;4.82;;;;;;;;;;5039746;28;20445;-68
2023/12/12 07:29:40;;;;;;;34.28;6.57;;;;;;;;;;5040353;28;20984;-68
2023/12/12 07:32:07;;;;;;;26.77;5.78;;;;;;;;;;5037568;28;20454;-69
2023/12/12 07:34:35;;;;;;;24.83;7.40;;;;;;;;;;5040750;28;20441;-68
2023/12/12 07:37:02;;;;;;;20.27;6.57;;;;;;;;;;5041042;28;20946;-68
2023/12/12 07:39:30;;;;;;;25.90;5.40;;;;;;;;;;5043521;28;20476;-68
2023/12/12 07:41:57;;;;;;;16.17;5.05;;;;;;;;;;5036219;28;20442;-68
2023/12/12 07:44:24;;;;;;;26.13;6.55;;;;;;;;;;5037648;28;20772;-68
2023/12/12 07:46:52;;;;;;;25.33;5.75;;;;;;;;;;5027027;28;20811;-68
2023/12/12 07:49:19;;;;;;;21.52;6.10;;;;;;;;;;5043512;28;20441;-68
2023/12/12 07:51:47;;;;;;;26.33;6.55;;;;;;;;;;5047598;28;20487;-68
2023/12/12 07:54:14;;;;;;;22.40;5.80;;;;;;;;;;5032471;28;20458;-68
2023/12/12 07:56:41;;;;;;;28.97;6.60;;;;;;;;;;5046380;28;20453;-69
2023/12/12 07:59:08;;;;;;;32.63;6.55;;;;;;;;;;5044944;28;20632;-68
2023/12/12 08:01:36;;;;;;;25.92;6.65;;;;;;;;;;5044523;28;20483;-68
2023/12/12 08:04:04;;;;;;;23.40;5.72;;;;;;;;;;5025727;28;20439;-68
2023/12/12 08:06:35;;;;;;;22.95;5.75;;;;;;;;;;5043300;28;20470;-68
2023/12/12 08:09:03;;;;;;;25.52;5.40;;;;;;;;;;5046949;28;20430;-68
2023/12/12 08:11:30;;;;;;;24.63;5.72;;;;;;;;;;5041853;28;20516;-68
2023/12/12 08:13:59;;;;;;;19.25;5.22;;;;;;;;;;5037964;28;20604;-68
2023/12/12 08:16:27;;;;;;;16.90;5.20;;;;;;;;;;5029311;28;20435;-68
2023/12/12 08:18:54;;;;;;;17.33;5.30;;;;;;;;;;5035107;28;20562;-68
2023/12/12 08:21:23;;;;;;;14.88;4.82;;;;;;;;;;5028265;28;20815;-68
2023/12/12 08:23:51;;;;;;;14.80;4.93;;;;;;;;;;5035594;28;20481;-68
2023/12/12 08:26:18;;;;;;;19.20;4.95;;;;;;;;;;5042439;28;20426;-68
2023/12/12 08:28:45;;;;;;;24.53;5.30;;;;;;;;;;5038819;28;20536;-68
2023/12/12 08:31:13;;;;;;;12.40;4.40;;;;;;;;;;5046591;28;20424;-68
2023/12/12 08:33:42;;;;;;;16.25;4.53;;;;;;;;;;5049367;28;20496;-68
2023/12/12 08:36:10;;;;;;;12.47;4.00;;;;;;;;;;5038714;28;20904;-68
2023/12/12 08:38:37;;;;;;;15.73;4.03;;;;;;;;;;5039817;28;20487;-68
2023/12/12 08:41:05;;;;;;;16.65;5.53;;;;;;;;;;5050779;28;20433;-69
2023/12/12 08:43:37;;;;;;;16.17;4.45;;;;;;;;;;5050575;28;20439;-68
2023/12/12 08:46:06;;;;;;;11.60;3.60;;;;;;;;;;5043278;28;20433;-68
2023/12/12 08:48:33;;;;;;;15.43;3.78;;;;;;;;;;5038403;28;20575;-68
2023/12/12 08:51:01;;;;;;;13.90;4.03;;;;;;;;;;5029554;28;20517;-68
2023/12/12 08:53:28;;;;;;;11.23;3.40;;;;;;;;;;5035514;28;21053;-68
2023/12/12 08:55:55;;;;;;;12.82;4.22;;;;;;;;;;5024842;28;20777;-68
2023/12/12 08:58:23;;;;;;;17.08;4.45;;;;;;;;;;5044421;28;20789;-68
2023/12/12 09:00:54;;;;;;;12.25;3.92;;;;;;;;;;5045220;28;20431;-68
2023/12/12 09:03:21;;;;;;;11.85;3.83;;;;;;;;;;5040570;28;20784;-68
2023/12/12 09:05:49;;;;;;;12.32;3.38;;;;;;;;;;5038952;28;20459;-69
2023/12/12 09:08:17;;;;;;;12.90;4.35;;;;;;;;;;5039774;28;20501;-68
2023/12/12 09:10:44;;;;;;;14.63;5.20;;;;;;;;;;5047995;28;20521;-68
2023/12/12 09:13:11;;;;;;;12.88;4.80;;;;;;;;;;5041292;28;20515;-68
2023/12/12 09:15:38;;;;;;;13.87;6.13;;;;;;;;;;5023039;28;20461;-67
2023/12/12 09:18:05;;;;;;;14.03;4.33;;;;;;;;;;5041399;28;20779;-67
2023/12/12 09:20:46;;;;;;;15.50;5.28;;;;;;;;;;5035364;28;20436;-67
2023/12/12 09:23:13;;;;;;;15.77;4.90;;;;;;;;;;5041412;28;20428;-67
2023/12/12 09:25:41;;;;;;;15.93;4.85;;;;;;;;;;5036280;28;20534;-67
2023/12/12 09:28:08;;;;;;;13.82;4.53;;;;;;;;;;5030123;28;20433;-67
2023/12/12 09:30:35;;;;;;;15.05;4.88;;;;;;;;;;5038453;28;20452;-67
2023/12/12 09:33:02;;;;;;;11.50;3.83;;;;;;;;;;5030542;28;20515;-68
2023/12/12 09:35:30;;;;;;;12.90;3.85;;;;;;;;;;5037447;28;20452;-67
2023/12/12 09:37:57;;;;;;;15.27;4.53;;;;;;;;;;5037764;28;20427;-67
2023/12/12 09:40:24;;;;;;;15.45;4.13;;;;;;;;;;5038913;28;20472;-67
2023/12/12 09:42:52;;;;;;;14.48;3.90;;;;;;;;;;5037887;28;21996;-68
2023/12/12 09:45:21;;;;;;;14.02;3.78;;;;;;;;;;5032616;28;20532;-67
2023/12/12 09:47:48;;;;;;;16.23;4.65;;;;;;;;;;5030133;28;20516;-68
2023/12/12 09:50:15;;;;;;;16.27;4.00;;;;;;;;;;5033890;28;21050;-68
2023/12/12 09:52:42;;;;;;;13.18;3.80;;;;;;;;;;5042668;28;20520;-68
2023/12/12 09:55:10;;;;;;;11.63;3.70;;;;;;;;;;5037711;28;20537;-65
2023/12/12 09:57:37;;;;;;;14.57;4.00;;;;;;;;;;5031610;28;20483;-67
2023/12/12 10:00:08;;;;;;;13.32;3.95;;;;;;;;;;5038320;28;20547;-68
2023/12/12 10:02:36;;;;;;;15.68;3.75;;;;;;;;;;5034944;28;20437;-68
2023/12/12 10:05:09;;;;;;;10.57;3.88;;;;;;;;;;5042349;28;20438;-67
2023/12/12 10:07:37;;;;;;;15.30;4.25;;;;;;;;;;5034721;28;20445;-67
2023/12/12 10:10:07;;;;;;;17.42;4.55;;;;;;;;;;5031583;28;20438;-67
2023/12/12 10:12:35;;;;;;;15.48;4.13;;;;;;;;;;5044756;28;20999;-67
2023/12/12 10:15:02;;;;;;;14.10;4.45;;;;;;;;;;5045643;28;20504;-67
2023/12/12 10:17:38;;;;;;;14.45;4.00;;;;;;;;;;5031331;28;20452;-68
2023/12/12 10:20:06;;;;;;;11.93;4.13;;;;;;;;;;5032051;28;20473;-67
2023/12/12 10:22:34;;;;;;;16.92;4.43;;;;;;;;;;5031284;28;20434;-67
2023/12/12 10:25:11;;;;;;;11.32;4.03;;;;;;;;;;5024490;28;21119;-67
2023/12/12 10:27:42;;;;;;;12.63;4.40;;;;;;;;;;5044250;28;20511;-68
2023/12/12 10:30:11;;;;;;;12.23;5.03;;;;;;;;;;5035265;28;20769;-68
2023/12/12 10:32:38;;;;;;;10.82;5.47;;;;;;;;;;5031132;28;20429;-68
2023/12/12 10:35:05;;;;;;;17.02;7.82;;;;;;;;;;5044277;28;20457;-68
2023/12/12 10:37:33;;;;;;;16.43;6.83;;;;;;;;;;5045819;28;20434;-68
2023/12/12 10:40:12;;;;;;;20.13;8.35;;;;;;;;;;5032552;28;20446;-67
2023/12/12 10:42:40;;;;;;;19.85;8.00;;;;;;;;;;5042919;28;20427;-68
2023/12/12 10:45:10;;;;;;;13.32;5.95;;;;;;;;;;5029040;28;20432;-68
2023/12/12 10:47:40;;;;;;;9.13;3.87;;;;;;;;;;5043722;28;21032;-68
2023/12/12 10:50:11;;;;;;;9.50;3.67;;;;;;;;;;5029914;28;20435;-68
2023/12/12 10:52:38;;;;;;;10.60;3.97;;;;;;;;;;5025520;28;20538;-68
2023/12/12 10:55:06;;;;;;;10.13;4.13;;;;;;;;;;5037816;28;20882;-68
2023/12/12 10:57:34;;;;;;;12.50;4.30;;;;;;;;;;5049007;28;20503;-68
2023/12/12 11:00:11;;;;;;;12.63;4.55;;;;;;;;;;5048468;28;20433;-68
2023/12/12 11:02:45;;;;;;;11.07;4.65;;;;;;;;;;5029425;28;20440;-69
2023/12/12 11:05:13;;;;;;;11.15;4.88;;;;;;;;;;5043697;28;20441;-69
2023/12/12 11:07:41;;;;;;;12.45;5.97;;;;;;;;;;5038113;28;20429;-69
2023/12/12 11:10:09;;;;;;;14.13;5.50;;;;;;;;;;5044549;28;20429;-69
2023/12/12 11:12:39;;;;;;;14.73;5.75;;;;;;;;;;5032049;28;20495;-69
2023/12/12 11:15:07;;;;;;;11.90;4.97;;;;;;;;;;5036824;28;20433;-69
2023/12/12 11:17:34;;;;;;;9.55;4.13;;;;;;;;;;5041713;28;21067;-69
2023/12/12 11:20:15;;;;;;;8.70;3.88;;;;;;;;;;5035422;28;20450;-70
2023/12/12 11:22:48;;;;;;;8.60;3.63;;;;;;;;;;5032875;28;20441;-70
2023/12/12 11:25:22;;;;;;;10.30;4.28;;;;;;;;;;5028186;28;20431;-70
2023/12/12 11:27:54;;;;;;;13.23;4.50;;;;;;;;;;5041154;28;20433;-70
2023/12/12 11:30:31;;;;;;;11.07;4.70;;;;;;;;;;5041248;28;20434;-71
2023/12/12 11:33:00;;;;;;;11.43;4.78;;;;;;;;;;5043948;28;20429;-70
2023/12/12 11:35:29;;;;;;;15.50;4.93;;;;;;;;;;5040930;28;20441;-70
2023/12/12 11:37:58;;;;;;;10.07;4.60;;;;;;;;;;5033441;28;21080;-70
2023/12/12 11:40:26;;;;;;;13.63;4.95;;;;;;;;;;5040318;28;20460;-70
2023/12/12 11:42:56;;;;;;;17.70;5.63;;;;;;;;;;5036045;28;20440;-70
2023/12/12 11:45:30;;;;;;;16.95;6.00;;;;;;;;;;5050336;28;20947;-70
2023/12/12 11:48:02;;;;;;;24.85;8.80;;;;;;;;;;5056016;28;20440;-70
2023/12/12 11:50:30;;;;;;;21.88;9.00;;;;;;;;;;5052335;28;20429;-70
2023/12/12 11:52:58;;;;;;;18.95;6.68;;;;;;;;;;5034214;28;20588;-70
2023/12/12 11:55:31;;;;;;;16.23;6.68;;;;;;;;;;5046812;28;20512;-70
2023/12/12 11:57:59;;;;;;;18.10;6.60;;;;;;;;;;5054283;28;20794;-70
2023/12/12 12:00:31;;;;;;;15.02;4.65;;;;;;;;;;5045327;28;20433;-70
2023/12/12 12:02:58;;;;;;;15.43;4.53;;;;;;;;;;5038052;28;20460;-70
2023/12/12 12:05:27;;;;;;;19.13;6.78;;;;;;;;;;5042550;28;20440;-70
2023/12/12 12:07:56;;;;;;;14.82;6.88;;;;;;;;;;5057286;28;20431;-70
2023/12/12 12:10:24;;;;;;;18.48;6.72;;;;;;;;;;5037693;28;20443;-70
2023/12/12 12:12:54;;;;;;;18.92;6.53;;;;;;;;;;5040560;28;20432;-70
2023/12/12 12:15:22;;;;;;;11.45;4.80;;;;;;;;;;5019735;28;20428;-70
2023/12/12 12:17:49;;;;;;;14.60;5.57;;;;;;;;;;5039904;28;20469;-70
2023/12/12 12:20:16;;;;;;;19.02;5.80;;;;;;;;;;5052001;28;20522;-71
2023/12/12 12:22:44;;;;;;;16.40;5.40;;;;;;;;;;5037163;28;20460;-72
2023/12/12 12:25:11;;;;;;;16.00;5.20;;;;;;;;;;5031940;28;21053;-72
2023/12/12 12:27:52;;;;;;;14.93;6.32;;;;;;;;;;5025708;28;20461;-72
2023/12/12 12:30:20;;;;;;;11.93;5.33;;;;;;;;;;5046422;28;20487;-72
2023/12/12 12:33:00;;;;;;;11.45;5.68;;;;;;;;;;5033037;28;20432;-72
2023/12/12 12:35:28;;;;;;;13.82;6.15;;;;;;;;;;5043365;28;20439;-72
2023/12/12 12:37:56;;;;;;;13.57;6.03;;;;;;;;;;5036871;28;20476;-72
2023/12/12 12:40:33;;;;;;;16.23;5.80;;;;;;;;;;5046037;28;20439;-72
2023/12/12 12:43:04;;;;;;;15.30;5.88;;;;;;;;;;5041142;28;20528;-72
2023/12/12 12:45:32;;;;;;;11.77;5.93;;;;;;;;;;5045801;28;20480;-72
2023/12/12 12:48:00;;;;;;;11.63;5.13;;;;;;;;;;5047719;28;20436;-73
2023/12/12 12:50:27;;;;;;;14.32;5.15;;;;;;;;;;5049516;28;20523;-73
2023/12/12 12:52:54;;;;;;;9.75;5.15;;;;;;;;;;5036861;28;20492;-73
2023/12/12 12:55:21;;;;;;;12.77;5.25;;;;;;;;;;5040983;28;20481;-73
2023/12/12 12:57:49;;;;;;;16.60;5.30;;;;;;;;;;5032039;28;20424;-73
2023/12/12 13:00:17;;;;;;;11.75;5.03;;;;;;;;;;5044475;28;20800;-73
2023/12/12 13:02:44;;;;;;;10.48;5.60;;;;;;;;;;5020965;28;20441;-73
2023/12/12 13:05:12;;;;;;;11.50;5.63;;;;;;;;;;5051544;28;20472;-73
2023/12/12 13:07:39;;;;;;;7.37;4.90;;;;;;;;;;5049647;28;20442;-74
2023/12/12 13:10:10;;;;;;;12.93;5.85;;;;;;;;;;5028215;28;20446;-73
2023/12/12 13:12:38;;;;;;;11.13;5.75;;;;;;;;;;5059643;28;20439;-73
2023/12/12 13:15:07;;;;;;;8.85;5.88;;;;;;;;;;5057503;28;20436;-73
2023/12/12 13:17:34;;;;;;;10.83;5.40;;;;;;;;;;5028263;28;20429;-73
2023/12/12 13:20:11;;;;;;;10.98;4.75;;;;;;;;;;5016852;28;20433;-73
2023/12/12 13:22:43;;;;;;;8.50;4.47;;;;;;;;;;5062608;28;20532;-73
2023/12/12 13:25:11;;;;;;;8.27;4.40;;;;;;;;;;5042837;28;20526;-73
2023/12/12 13:27:38;;;;;;;10.82;4.55;;;;;;;;;;5049767;28;20437;-73
2023/12/12 13:30:10;;;;;;;11.35;6.80;;;;;;;;;;5042172;28;20794;-73
2023/12/12 13:32:38;;;;;;;6.95;5.13;;;;;;;;;;5049027;28;20513;-73
2023/12/12 13:35:06;;;;;;;8.45;4.60;;;;;;;;;;5038521;28;20932;-73
2023/12/12 13:37:47;;;;;;;6.97;4.82;;;;;;;;;;5044159;28;20424;-72
2023/12/12 13:40:14;;;;;;;9.87;5.00;;;;;;;;;;5046801;28;20428;-73
2023/12/12 13:42:42;;;;;;;11.70;5.00;;;;;;;;;;5036634;28;20603;-73
2023/12/12 13:45:09;;;;;;;6.25;3.90;;;;;;;;;;5054680;28;20422;-73
2023/12/12 13:47:36;;;;;;;7.95;4.50;;;;;;;;;;5057117;28;20435;-73
2023/12/12 13:50:04;;;;;;;7.97;5.18;;;;;;;;;;5048268;28;20426;-73
2023/12/12 13:52:31;;;;;;;9.18;5.68;;;;;;;;;;5041529;28;20497;-73
2023/12/12 13:54:58;;;;;;;11.50;6.25;;;;;;;;;;5050400;28;20460;-73
2023/12/12 13:57:26;;;;;;;10.32;5.15;;;;;;;;;;5039217;28;20864;-73
2023/12/12 13:59:53;;;;;;;6.68;4.85;;;;;;;;;;5048018;28;20889;-73
2023/12/12 14:02:20;;;;;;;4.75;4.25;;;;;;;;;;5042012;28;20457;-73
2023/12/12 14:05:01;;;;;;;10.87;6.30;;;;;;;;;;5042695;28;20965;-73
2023/12/12 14:07:29;;;;;;;7.95;5.47;;;;;;;;;;5046673;28;20437;-73
2023/12/12 14:09:56;;;;;;;8.60;4.35;;;;;;;;;;5042103;28;20480;-73
2023/12/12 14:12:23;;;;;;;6.00;4.50;;;;;;;;;;5042027;28;20463;-73
2023/12/12 14:14:50;;;;;;;4.53;4.13;;;;;;;;;;5033987;28;20436;-73
2023/12/12 14:17:18;;;;;;;7.45;4.70;;;;;;;;;;5055832;28;20426;-73
2023/12/12 14:19:45;;;;;;;6.97;4.50;;;;;;;;;;5063270;28;20534;-73
2023/12/12 14:22:13;;;;;;;8.82;5.38;;;;;;;;;;5045502;28;20446;-73
2023/12/12 14:24:40;;;;;;;8.98;6.30;;;;;;;;;;5050430;28;20493;-73
2023/12/12 14:27:08;;;;;;;6.22;4.10;;;;;;;;;;5039094;28;20540;-73
2023/12/12 14:29:35;;;;;;;6.45;3.92;;;;;;;;;;5057252;28;20921;-73
2023/12/12 14:32:05;;;;;;;6.97;3.97;;;;;;;;;;5044530;28;20540;-73
2023/12/12 14:34:33;;;;;;;6.37;4.23;;;;;;;;;;5022137;28;20512;-73
2023/12/12 14:37:01;;;;;;;9.52;4.55;;;;;;;;;;5048740;28;20439;-73